createdAt,value
2017-10-05T00:00:34.565Z,19.35
2017-10-05T00:03:04.105Z,22.17
2017-10-05T00:05:32.933Z,17.05
2017-10-05T00:08:01.925Z,14.38
2017-10-05T00:10:30.900Z,15.57
2017-10-05T00:12:59.917Z,13.57
2017-10-05T00:15:28.912Z,24.60
2017-10-05T00:17:57.921Z,14.80
2017-10-05T00:20:27.618Z,18.48
2017-10-05T00:22:57.190Z,18.00
2017-10-05T00:25:26.514Z,21.48
2017-10-05T00:27:55.944Z,13.40
2017-10-05T00:30:26.240Z,16.75
2017-10-05T00:32:56.602Z,18.85
2017-10-05T00:35:26.318Z,12.02
2017-10-05T00:37:55.351Z,8.70
2017-10-05T00:40:24.429Z,9.85
2017-10-05T00:42:53.742Z,23.25
2017-10-05T00:45:23.159Z,22.77
2017-10-05T00:47:52.011Z,15.38
2017-10-05T00:50:21.226Z,9.63
2017-10-05T00:52:50.053Z,15.15
2017-10-05T00:55:20.242Z,12.60
2017-10-05T00:57:49.381Z,12.33
2017-10-05T01:00:18.553Z,14.30
2017-10-05T01:02:48.588Z,17.73
2017-10-05T01:05:17.508Z,13.75
2017-10-05T01:07:46.510Z,14.73
2017-10-05T01:10:15.289Z,22.35
2017-10-05T01:12:44.142Z,20.77
2017-10-05T01:15:14.214Z,14.90
2017-10-05T01:17:43.225Z,16.70
2017-10-05T01:20:12.289Z,23.30
2017-10-05T01:22:42.205Z,11.27
2017-10-05T01:25:11.317Z,17.62
2017-10-05T01:27:40.361Z,17.37
2017-10-05T01:30:09.369Z,9.80
2017-10-05T01:32:39.004Z,20.30
2017-10-05T01:35:08.177Z,16.00
2017-10-05T01:37:37.598Z,22.92
2017-10-05T01:40:06.926Z,16.02
2017-10-05T01:42:36.766Z,16.08
2017-10-05T01:45:06.019Z,17.62
2017-10-05T01:47:36.422Z,24.50
2017-10-05T01:50:05.445Z,15.45
2017-10-05T01:52:34.414Z,17.50
2017-10-05T01:55:03.433Z,19.45
2017-10-05T01:57:33.630Z,26.73
2017-10-05T02:00:02.581Z,20.80
2017-10-05T02:02:31.385Z,17.98
2017-10-05T02:05:00.598Z,9.60
2017-10-05T02:07:29.801Z,20.90
2017-10-05T02:09:58.745Z,12.27
2017-10-05T02:12:27.979Z,31.27
2017-10-05T02:14:56.830Z,16.98
2017-10-05T02:17:25.977Z,14.00
2017-10-05T02:19:55.056Z,20.87
2017-10-05T02:22:24.076Z,13.60
2017-10-05T02:24:55.088Z,17.30
2017-10-05T02:27:24.226Z,23.00
2017-10-05T02:29:53.922Z,14.25
2017-10-05T02:32:22.866Z,20.60
2017-10-05T02:34:52.092Z,17.83
2017-10-05T02:37:21.147Z,16.17
2017-10-05T02:39:50.849Z,18.55
2017-10-05T02:42:19.982Z,15.47
2017-10-05T02:44:48.762Z,15.52
2017-10-05T02:47:17.529Z,23.48
2017-10-05T02:49:46.649Z,14.20
2017-10-05T02:52:16.288Z,15.55
2017-10-05T02:54:46.492Z,19.85
2017-10-05T02:57:15.947Z,22.75
2017-10-05T02:59:45.200Z,15.83
2017-10-05T03:02:15.390Z,20.25
2017-10-05T03:04:44.656Z,37.53
2017-10-05T03:07:13.961Z,17.27
2017-10-05T03:09:43.489Z,19.85
2017-10-05T03:12:12.714Z,19.90
2017-10-05T03:14:41.569Z,18.00
2017-10-05T03:17:10.369Z,23.75
2017-10-05T03:19:39.137Z,20.62
2017-10-05T03:22:08.047Z,20.80
2017-10-05T03:24:36.995Z,22.37
2017-10-05T03:27:06.017Z,12.63
2017-10-05T03:29:35.344Z,15.83
2017-10-05T03:32:04.382Z,14.47
2017-10-05T03:34:34.239Z,13.73
2017-10-05T03:37:03.166Z,13.62
2017-10-05T03:39:33.183Z,17.83
2017-10-05T03:42:02.253Z,15.48
2017-10-05T03:44:31.221Z,12.45
2017-10-05T03:47:00.001Z,10.90
2017-10-05T03:49:29.208Z,6.53
2017-10-05T03:51:58.608Z,13.70
2017-10-05T03:54:28.072Z,15.45
2017-10-05T03:56:57.127Z,12.68
2017-10-05T03:59:26.173Z,9.27
2017-10-05T04:01:55.215Z,9.77
2017-10-05T04:04:24.070Z,12.20
2017-10-05T04:06:52.948Z,10.68
2017-10-05T04:09:21.844Z,6.75
2017-10-05T04:11:50.745Z,13.75
2017-10-05T04:14:19.841Z,11.12
2017-10-05T04:16:48.939Z,13.43
2017-10-05T04:19:17.919Z,12.80
2017-10-05T04:21:47.223Z,13.33
2017-10-05T04:24:16.055Z,9.10
2017-10-05T04:26:45.634Z,12.77
2017-10-05T04:29:14.434Z,17.37
2017-10-05T04:31:44.173Z,8.77
2017-10-05T04:34:13.419Z,13.93
2017-10-05T04:36:42.419Z,13.75
2017-10-05T04:39:11.453Z,13.60
2017-10-05T04:41:40.338Z,18.20
2017-10-05T04:44:09.370Z,13.25
2017-10-05T04:46:38.308Z,9.63
2017-10-05T04:49:08.104Z,13.10
2017-10-05T04:51:36.974Z,13.13
2017-10-05T04:54:05.932Z,10.80
2017-10-05T04:56:34.935Z,12.05
2017-10-05T04:59:03.780Z,11.57
2017-10-05T05:01:33.396Z,15.75
2017-10-05T05:04:02.480Z,13.48
2017-10-05T05:06:32.140Z,18.58
2017-10-05T05:09:00.943Z,19.30
2017-10-05T05:11:29.965Z,18.58
2017-10-05T05:13:59.936Z,17.40
2017-10-05T05:16:29.466Z,19.65
2017-10-05T05:18:59.165Z,13.17
2017-10-05T05:21:28.000Z,21.10
2017-10-05T05:23:57.105Z,14.13
2017-10-05T05:26:26.205Z,21.80
2017-10-05T05:28:55.074Z,22.95
2017-10-05T05:31:23.969Z,17.83
2017-10-05T05:33:52.833Z,18.67
2017-10-05T05:36:22.754Z,30.17
2017-10-05T05:38:52.345Z,19.83
2017-10-05T05:41:22.190Z,14.27
2017-10-05T05:43:51.560Z,24.02
2017-10-05T05:46:21.300Z,16.15
2017-10-05T05:48:50.274Z,16.73
2017-10-05T05:51:19.256Z,12.77
2017-10-05T05:53:48.251Z,21.00
2017-10-05T05:56:17.359Z,15.97
2017-10-05T05:58:46.474Z,12.20
2017-10-05T06:01:15.698Z,15.98
2017-10-05T06:03:44.527Z,15.60
2017-10-05T06:06:14.426Z,22.83
2017-10-05T06:08:44.015Z,23.27
2017-10-05T06:11:12.875Z,16.00
2017-10-05T06:13:41.783Z,17.77
2017-10-05T06:16:10.612Z,18.27
2017-10-05T06:18:40.646Z,18.50
2017-10-05T06:21:09.563Z,15.38
2017-10-05T06:23:38.432Z,22.27
2017-10-05T06:26:07.414Z,19.90
2017-10-05T06:28:36.342Z,11.83
2017-10-05T06:31:05.567Z,16.33
2017-10-05T06:33:34.581Z,15.52
2017-10-05T06:36:04.333Z,11.40
2017-10-05T06:38:33.553Z,24.50
2017-10-05T06:41:02.457Z,18.30
2017-10-05T06:43:31.277Z,14.70
2017-10-05T06:46:00.056Z,11.02
2017-10-05T06:48:29.641Z,12.83
2017-10-05T06:50:59.689Z,17.65
2017-10-05T06:53:28.602Z,15.20
2017-10-05T06:55:57.633Z,28.67
2017-10-05T06:58:26.488Z,22.27
2017-10-05T07:00:55.304Z,19.58
2017-10-05T07:03:24.152Z,17.25
2017-10-05T07:05:52.989Z,16.27
2017-10-05T07:08:21.882Z,12.43
2017-10-05T07:10:51.767Z,17.27
2017-10-05T07:13:20.694Z,23.23
2017-10-05T07:15:50.291Z,22.10
2017-10-05T07:18:19.866Z,17.35
2017-10-05T07:20:48.656Z,12.07
2017-10-05T07:23:17.854Z,13.80
2017-10-05T07:25:46.926Z,19.30
2017-10-05T07:28:16.697Z,30.30
2017-10-05T07:30:46.456Z,18.60
2017-10-05T07:33:15.373Z,20.42
2017-10-05T07:35:44.228Z,22.20
2017-10-05T07:38:13.147Z,20.10
2017-10-05T07:40:42.713Z,19.63
2017-10-05T07:43:11.518Z,18.60
2017-10-05T07:45:40.291Z,25.17
2017-10-05T07:48:09.079Z,30.20
2017-10-05T07:50:37.870Z,30.35
2017-10-05T07:53:07.147Z,22.60
2017-10-05T07:55:36.114Z,47.20
2017-10-05T07:58:05.820Z,29.92
2017-10-05T08:00:35.570Z,39.13
2017-10-05T08:03:04.516Z,26.35
2017-10-05T08:05:34.458Z,27.53
2017-10-05T08:08:03.357Z,28.67
2017-10-05T08:10:32.197Z,31.62
2017-10-05T08:13:01.071Z,32.63
2017-10-05T08:15:30.098Z,41.17
2017-10-05T08:17:59.933Z,33.83
2017-10-05T08:20:29.013Z,25.92
2017-10-05T08:22:58.091Z,21.67
2017-10-05T08:25:27.879Z,20.67
2017-10-05T08:27:56.681Z,23.73
2017-10-05T08:30:25.510Z,21.55
2017-10-05T08:32:54.378Z,25.05
2017-10-05T08:35:23.494Z,22.45
2017-10-05T08:37:52.528Z,15.77
2017-10-05T08:40:21.534Z,18.20
2017-10-05T08:42:51.277Z,32.20
2017-10-05T08:45:20.340Z,17.37
2017-10-05T08:47:50.201Z,12.50
2017-10-05T08:50:19.075Z,10.25
2017-10-05T08:52:47.937Z,12.50
2017-10-05T08:55:18.851Z,19.80
2017-10-05T08:57:47.896Z,13.40
2017-10-05T09:00:16.857Z,12.37
2017-10-05T09:02:46.562Z,10.00
2017-10-05T09:05:16.417Z,11.75
2017-10-05T09:07:45.627Z,7.10
2017-10-05T09:10:14.555Z,9.27
2017-10-05T09:12:44.385Z,9.60
2017-10-05T09:15:13.212Z,9.97
2017-10-05T09:17:42.181Z,8.13
2017-10-05T09:20:11.313Z,7.93
2017-10-05T09:22:40.215Z,8.15
2017-10-05T09:25:09.053Z,16.30
2017-10-05T09:27:38.376Z,6.37
2017-10-05T09:30:07.366Z,13.43
2017-10-05T09:32:36.664Z,5.00
2017-10-05T09:35:05.784Z,6.57
2017-10-05T09:37:34.820Z,8.43
2017-10-05T09:40:05.005Z,5.28
2017-10-05T09:42:33.852Z,5.15
2017-10-05T09:45:03.478Z,7.10
2017-10-05T09:47:32.375Z,10.07
2017-10-05T09:50:01.214Z,7.18
2017-10-05T09:52:30.544Z,5.55
2017-10-05T09:54:59.590Z,7.45
2017-10-05T09:57:29.348Z,5.60
2017-10-05T09:59:58.482Z,6.00
2017-10-05T10:02:28.070Z,7.40
2017-10-05T10:05:01.854Z,6.05
2017-10-05T10:07:34.951Z,12.40
2017-10-05T10:10:04.268Z,10.35
2017-10-05T10:12:33.260Z,4.75
2017-10-05T10:15:02.393Z,2.83
2017-10-05T10:17:32.324Z,7.95
2017-10-05T10:20:01.616Z,4.20
2017-10-05T10:22:30.761Z,4.28
2017-10-05T10:24:59.633Z,5.22
2017-10-05T10:27:28.465Z,2.78
2017-10-05T10:29:58.273Z,6.07
2017-10-05T10:32:27.836Z,6.30
2017-10-05T10:34:56.608Z,3.80
2017-10-05T10:37:25.565Z,2.75
2017-10-05T10:39:55.270Z,5.47
2017-10-05T10:42:25.532Z,5.95
2017-10-05T10:44:54.427Z,5.87
2017-10-05T10:47:23.313Z,4.05
2017-10-05T10:49:52.869Z,4.47
2017-10-05T10:52:22.448Z,6.00
2017-10-05T10:54:51.625Z,7.25
2017-10-05T10:57:20.496Z,8.30
2017-10-05T10:59:49.313Z,10.43
2017-10-05T11:02:18.482Z,9.87
2017-10-05T11:04:47.350Z,19.83
2017-10-05T11:07:16.273Z,13.00
2017-10-05T11:09:45.109Z,21.80
2017-10-05T11:12:14.855Z,17.02
2017-10-05T11:14:43.975Z,34.70
2017-10-05T11:17:12.858Z,25.65
2017-10-05T11:19:41.708Z,26.10
2017-10-05T11:22:10.986Z,22.45
2017-10-05T11:24:40.760Z,22.20
2017-10-05T11:27:09.977Z,29.58
2017-10-05T11:29:39.151Z,21.02
2017-10-05T11:32:08.166Z,26.07
2017-10-05T11:34:37.190Z,22.87
2017-10-05T11:37:06.975Z,33.20
2017-10-05T11:39:35.976Z,29.20
2017-10-05T11:42:05.619Z,30.27
2017-10-05T11:44:34.985Z,25.47
2017-10-05T11:47:04.596Z,20.70
2017-10-05T11:49:34.285Z,33.30
2017-10-05T11:52:03.165Z,16.70
2017-10-05T11:54:32.203Z,19.70
2017-10-05T11:57:01.320Z,15.30
2017-10-05T11:59:30.256Z,16.33
2017-10-05T12:01:59.312Z,15.73
2017-10-05T12:04:28.112Z,12.80
2017-10-05T12:06:56.956Z,15.02
2017-10-05T12:09:26.261Z,12.00
2017-10-05T12:11:55.305Z,18.50
2017-10-05T12:14:24.401Z,8.57
2017-10-05T12:16:53.445Z,12.93
2017-10-05T12:19:22.497Z,9.67
2017-10-05T12:21:51.854Z,13.05
2017-10-05T12:24:20.989Z,16.52
2017-10-05T12:26:49.839Z,13.98
2017-10-05T12:29:18.698Z,13.45
2017-10-05T12:31:47.668Z,9.82
2017-10-05T12:34:17.004Z,7.87
2017-10-05T12:36:46.007Z,11.53
2017-10-05T12:39:15.124Z,13.93
2017-10-05T12:41:43.961Z,12.23
2017-10-05T12:44:13.867Z,11.38
2017-10-05T12:46:42.867Z,13.00
2017-10-05T12:49:12.016Z,11.10
2017-10-05T12:51:41.260Z,10.18
2017-10-05T12:54:11.043Z,10.73
2017-10-05T12:56:40.041Z,32.25
2017-10-05T12:59:10.173Z,23.33
2017-10-05T13:01:40.093Z,24.92
2017-10-05T13:04:09.126Z,37.60
2017-10-05T13:06:38.276Z,29.97
2017-10-05T13:09:08.114Z,23.58
2017-10-05T13:11:37.282Z,17.55
2017-10-05T13:14:06.953Z,13.63
2017-10-05T13:16:35.792Z,38.50
2017-10-05T13:19:04.827Z,41.20
2017-10-05T13:21:33.901Z,68.65
2017-10-05T13:24:02.811Z,47.25
2017-10-05T13:26:31.624Z,33.92
2017-10-05T13:29:00.569Z,29.45
2017-10-05T13:31:29.407Z,27.20
2017-10-05T13:33:58.288Z,34.70
2017-10-05T13:36:27.432Z,28.33
2017-10-05T13:38:56.495Z,19.48
2017-10-05T13:41:26.546Z,32.03
2017-10-05T13:43:55.559Z,20.08
2017-10-05T13:46:25.334Z,22.03
2017-10-05T13:48:54.570Z,24.23
2017-10-05T13:51:23.658Z,19.70
2017-10-05T13:53:53.939Z,15.23
2017-10-05T13:56:22.902Z,14.10
2017-10-05T13:58:51.779Z,12.48
2017-10-05T14:01:20.776Z,12.47
2017-10-05T14:03:51.101Z,7.53
2017-10-05T14:06:21.105Z,13.10
2017-10-05T14:08:50.179Z,5.62
2017-10-05T14:11:19.570Z,5.63
2017-10-05T14:13:48.534Z,3.80
2017-10-05T14:16:18.150Z,5.57
2017-10-05T14:18:48.957Z,5.40
2017-10-05T14:21:19.310Z,8.38
2017-10-05T14:23:49.068Z,4.60
2017-10-05T14:26:19.648Z,8.80
2017-10-05T14:28:49.458Z,8.10
2017-10-05T14:31:18.607Z,12.75
2017-10-05T14:33:47.837Z,6.30
2017-10-05T14:36:18.081Z,7.00
2017-10-05T14:38:47.111Z,22.33
2017-10-05T14:41:15.942Z,17.27
2017-10-05T14:43:45.718Z,16.48
2017-10-05T14:46:14.703Z,32.80
2017-10-05T14:48:43.574Z,41.17
2017-10-05T14:51:12.511Z,24.77
2017-10-05T14:53:42.509Z,21.42
2017-10-05T14:56:11.447Z,26.70
2017-10-05T14:58:40.427Z,23.23
2017-10-05T15:01:09.291Z,20.37
2017-10-05T15:03:38.540Z,27.58
2017-10-05T15:06:07.852Z,24.92
2017-10-05T15:08:36.957Z,15.98
2017-10-05T15:11:05.859Z,12.37
2017-10-05T15:13:34.782Z,11.23
2017-10-05T15:16:03.842Z,15.00
2017-10-05T15:18:34.049Z,11.18
2017-10-05T15:21:03.077Z,11.87
2017-10-05T15:23:32.869Z,6.80
2017-10-05T15:26:01.705Z,8.33
2017-10-05T15:28:30.557Z,11.15
2017-10-05T15:30:59.493Z,7.62
2017-10-05T15:33:28.723Z,9.73
2017-10-05T15:35:58.104Z,9.60
2017-10-05T15:38:27.175Z,12.90
2017-10-05T15:40:56.252Z,12.02
2017-10-05T15:43:26.054Z,5.40
2017-10-05T15:45:55.912Z,8.75
2017-10-05T15:48:25.136Z,8.60
2017-10-05T15:50:54.030Z,10.73
2017-10-05T15:53:22.883Z,10.45
2017-10-05T15:55:51.738Z,10.95
2017-10-05T15:58:21.345Z,10.43
2017-10-05T16:00:51.036Z,4.73
2017-10-05T16:03:21.267Z,10.18
2017-10-05T16:05:51.131Z,9.18
2017-10-05T16:08:20.395Z,9.40
2017-10-05T16:10:49.691Z,15.38
2017-10-05T16:13:18.729Z,11.85
2017-10-05T16:15:47.814Z,10.60
2017-10-05T16:18:16.862Z,10.23
2017-10-05T16:20:46.468Z,6.30
2017-10-05T16:23:16.280Z,9.75
2017-10-05T16:25:45.905Z,12.63
2017-10-05T16:28:15.070Z,15.20
2017-10-05T16:30:44.829Z,51.03
2017-10-05T16:33:13.922Z,11.57
2017-10-05T16:35:43.967Z,18.03
2017-10-05T16:38:14.268Z,10.00
2017-10-05T16:40:43.629Z,15.00
2017-10-05T16:43:12.828Z,15.93
2017-10-05T16:45:41.856Z,15.15
2017-10-05T16:48:10.783Z,16.27
2017-10-05T16:50:39.677Z,17.80
2017-10-05T16:53:09.565Z,17.27
2017-10-05T16:55:38.715Z,13.02
2017-10-05T16:58:07.799Z,17.53
2017-10-05T17:00:37.142Z,12.53
2017-10-05T17:03:06.115Z,11.90
2017-10-05T17:05:35.305Z,19.70
2017-10-05T17:08:04.379Z,18.17
2017-10-05T17:10:33.450Z,15.13
2017-10-05T17:13:02.800Z,12.93
2017-10-05T17:15:31.726Z,22.13
2017-10-05T17:18:00.622Z,23.33
2017-10-05T17:20:30.331Z,28.80
2017-10-05T17:22:59.270Z,16.65
2017-10-05T17:25:28.258Z,25.45
2017-10-05T17:27:57.355Z,15.80
2017-10-05T17:30:27.080Z,28.70
2017-10-05T17:32:56.973Z,23.35
2017-10-05T17:35:26.213Z,20.17
2017-10-05T17:37:55.376Z,21.58
2017-10-05T17:40:24.450Z,24.08
2017-10-05T17:42:54.538Z,32.60
2017-10-05T17:45:24.597Z,17.98
2017-10-05T17:47:53.572Z,24.20
2017-10-05T17:50:22.816Z,21.35
2017-10-05T17:52:52.009Z,22.95
2017-10-05T17:55:21.295Z,23.05
2017-10-05T17:57:50.499Z,22.13
2017-10-05T18:00:19.724Z,19.00
2017-10-05T18:02:50.061Z,15.70
2017-10-05T18:05:20.212Z,27.17
2017-10-05T18:07:49.533Z,16.37
2017-10-05T18:10:18.448Z,24.03
2017-10-05T18:12:47.537Z,31.30
2017-10-05T18:15:16.793Z,15.60
2017-10-05T18:17:46.123Z,30.58
2017-10-05T18:20:15.171Z,22.05
2017-10-05T18:22:44.937Z,23.92
2017-10-05T18:25:16.053Z,17.10
2017-10-05T18:27:48.570Z,26.00
2017-10-05T18:30:18.588Z,20.85
2017-10-05T18:32:50.387Z,26.95
2017-10-05T18:35:19.503Z,26.90
2017-10-05T18:37:51.132Z,22.17
2017-10-05T18:40:22.456Z,17.17
2017-10-05T18:42:53.296Z,22.00
2017-10-05T18:45:28.052Z,26.52
2017-10-05T18:48:08.426Z,28.83
2017-10-05T18:50:38.215Z,24.12
2017-10-05T18:53:07.632Z,31.83
2017-10-05T18:55:36.645Z,23.37
2017-10-05T18:58:08.720Z,22.13
2017-10-05T19:00:39.843Z,23.48
2017-10-05T19:03:09.757Z,27.90
2017-10-05T19:05:38.972Z,34.90
2017-10-05T19:08:08.422Z,16.02
2017-10-05T19:10:40.768Z,18.53
2017-10-05T19:13:22.072Z,26.93
2017-10-05T19:15:53.659Z,27.10
2017-10-05T19:18:23.589Z,27.95
2017-10-05T19:20:52.587Z,18.90
2017-10-05T19:23:23.644Z,32.40
2017-10-05T19:25:54.315Z,29.67
2017-10-05T19:28:23.551Z,31.73
2017-10-05T19:30:53.405Z,23.10
2017-10-05T19:33:25.123Z,22.80
2017-10-05T19:35:54.661Z,32.50
2017-10-05T19:38:25.979Z,23.25
2017-10-05T19:40:55.905Z,30.33
2017-10-05T19:43:26.265Z,33.05
2017-10-05T19:45:57.006Z,23.70
2017-10-05T19:48:27.096Z,26.60
2017-10-05T19:50:56.435Z,26.75
2017-10-05T19:53:26.303Z,24.52
2017-10-05T19:55:58.327Z,23.58
2017-10-05T19:58:27.462Z,22.90
2017-10-05T20:01:01.076Z,24.00
2017-10-05T20:03:31.418Z,12.57
2017-10-05T20:06:02.890Z,23.17
2017-10-05T20:08:34.691Z,24.07
2017-10-05T20:11:04.695Z,24.80
2017-10-05T20:13:34.934Z,22.48
2017-10-05T20:16:04.417Z,25.77
2017-10-05T20:18:34.620Z,22.15
2017-10-05T20:21:05.227Z,22.55
2017-10-05T20:23:35.120Z,21.73
2017-10-05T20:26:05.482Z,20.98
2017-10-05T20:28:35.097Z,21.52
2017-10-05T20:31:04.462Z,23.35
2017-10-05T20:33:37.397Z,18.08
2017-10-05T20:36:07.088Z,15.18
2017-10-05T20:38:37.242Z,24.70
2017-10-05T20:41:06.579Z,28.95
2017-10-05T20:43:36.884Z,17.45
2017-10-05T20:46:06.062Z,21.70
2017-10-05T20:48:35.490Z,21.30
2017-10-05T20:51:05.470Z,17.33
2017-10-05T20:53:34.948Z,18.67
2017-10-05T21:00:49.060Z,23.48
2017-10-05T21:03:18.115Z,20.27
2017-10-05T21:05:47.017Z,22.65
2017-10-05T21:08:15.951Z,19.92
2017-10-05T21:10:45.182Z,19.13
2017-10-05T21:13:14.547Z,20.50
2017-10-05T21:15:44.049Z,24.77
2017-10-05T21:18:14.367Z,22.80
2017-10-05T21:20:44.744Z,16.98
2017-10-05T21:23:15.761Z,15.73
2017-10-05T21:25:46.439Z,17.80
2017-10-05T21:28:18.264Z,12.60
2017-10-05T21:33:26.042Z,20.98
2017-10-05T21:36:00.174Z,11.15
2017-10-05T21:38:30.601Z,9.02
2017-10-05T21:40:59.449Z,13.25
2017-10-05T21:43:30.525Z,21.30
2017-10-05T21:46:04.191Z,20.70
2017-10-05T21:48:35.802Z,13.18
2017-10-05T21:51:05.386Z,23.90
2017-10-05T21:53:35.226Z,17.43
2017-10-05T21:56:05.221Z,18.05
2017-10-05T21:58:35.665Z,12.02
2017-10-05T22:01:05.708Z,19.80
2017-10-05T22:03:35.240Z,15.30
2017-10-05T22:06:06.012Z,17.77
2017-10-05T22:08:36.285Z,17.33
2017-10-05T22:11:06.473Z,18.20
2017-10-05T22:13:37.702Z,10.55
2017-10-05T22:16:10.258Z,14.30
2017-10-05T22:18:40.580Z,12.13
2017-10-05T22:21:09.980Z,14.15
2017-10-05T22:23:40.476Z,7.60
2017-10-05T22:26:09.330Z,8.48
2017-10-05T22:28:38.723Z,10.00
2017-10-05T22:31:07.897Z,22.65
2017-10-05T22:33:39.561Z,12.18
2017-10-05T22:36:10.098Z,7.55
2017-10-05T22:38:41.257Z,13.32
2017-10-05T22:41:11.342Z,11.40
2017-10-05T22:43:40.495Z,13.73
2017-10-05T22:46:10.789Z,6.35
2017-10-05T22:48:40.087Z,8.10
2017-10-05T22:51:09.430Z,5.90
2017-10-05T22:53:39.568Z,9.40
2017-10-05T22:56:09.795Z,10.52
2017-10-05T22:58:39.290Z,13.50
2017-10-05T23:01:09.242Z,11.27
2017-10-05T23:03:39.246Z,11.75
2017-10-05T23:06:12.745Z,11.10
2017-10-05T23:08:41.845Z,10.55
2017-10-05T23:11:11.081Z,10.43
2017-10-05T23:13:41.713Z,17.65
2017-10-05T23:16:10.980Z,10.82
2017-10-05T23:18:40.230Z,9.50
2017-10-05T23:21:09.207Z,9.65
2017-10-05T23:23:38.215Z,12.32
2017-10-05T23:26:08.699Z,10.23
2017-10-05T23:28:37.508Z,6.25
2017-10-05T23:31:07.983Z,7.45
2017-10-05T23:33:39.010Z,10.13
2017-10-05T23:36:08.727Z,9.55
2017-10-05T23:38:41.366Z,10.30
2017-10-05T23:41:10.155Z,10.57
2017-10-05T23:43:39.401Z,11.68
2017-10-05T23:46:09.278Z,10.20
2017-10-05T23:48:39.225Z,11.65
2017-10-05T23:51:14.029Z,17.30
2017-10-05T23:53:42.985Z,17.50
2017-10-05T23:56:11.985Z,7.95
2017-10-05T23:58:41.096Z,15.50
